Time;durP1;ratioP1;P1;durP2;ratioP2;P2;SDS_P1;SDS_P2;PMS_P1;PMS_P2;Temp;Humidity;BMP_temperature;BMP_pressure;BME280_temperature;BME280_humidity;BME280_pressure;Samples;Min_cycle;Max_cycle;Signal;HPM_P1;HPM_P2
2023/02/28 00:00:10;;;;;;;4.93;1.75;;;;;;;1.64;81.30;102077.19;5003082;28;20046;-71
2023/02/28 00:02:41;;;;;;;8.32;2.58;;;;;;;1.60;81.86;102072.66;5008434;28;20500;-71
2023/02/28 00:05:07;;;;;;;3.92;1.80;;;;;;;1.58;81.76;102071.66;5005980;28;20602;-71
2023/02/28 00:07:33;;;;;;;5.38;1.60;;;;;;;1.52;81.59;102071.34;5006261;28;20061;-71
2023/02/28 00:09:58;;;;;;;6.05;1.75;;;;;;;1.43;82.60;102076.03;5005238;28;20078;-71
2023/02/28 00:12:24;;;;;;;3.33;1.30;;;;;;;1.33;82.99;102073.72;5004514;28;20425;-72
2023/02/28 00:14:50;;;;;;;4.53;1.50;;;;;;;1.26;83.89;102065.59;5004824;28;20056;-71
2023/02/28 00:17:17;;;;;;;4.28;1.85;;;;;;;1.18;84.01;102072.06;5000246;28;20034;-71
2023/02/28 00:19:43;;;;;;;5.13;1.65;;;;;;;1.09;84.79;102069.81;5004194;28;20053;-71
2023/02/28 00:22:09;;;;;;;3.17;1.10;;;;;;;1.03;84.57;102068.59;5000934;28;20030;-71
2023/02/28 00:24:34;;;;;;;5.13;1.75;;;;;;;0.97;83.96;102070.81;5003993;28;20513;-71
2023/02/28 00:26:59;;;;;;;4.68;1.65;;;;;;;0.86;83.79;102073.72;5000701;28;20038;-71
2023/02/28 00:29:25;;;;;;;6.78;1.50;;;;;;;0.71;83.42;102071.91;4994539;28;20057;-71
2023/02/28 00:31:50;;;;;;;3.65;1.30;;;;;;;0.58;84.31;102079.00;5003693;28;20386;-71
2023/02/28 00:34:15;;;;;;;2.65;1.15;;;;;;;0.45;83.59;102079.09;5001529;28;20416;-71
2023/02/28 00:36:45;;;;;;;4.33;1.93;;;;;;;0.24;83.72;102076.09;5002895;28;20563;-71
2023/02/28 00:39:11;;;;;;;5.35;1.85;;;;;;;0.07;83.24;102071.56;5001968;28;20100;-71
2023/02/28 00:41:36;;;;;;;4.13;1.30;;;;;;;-0.13;83.45;102084.22;5002481;28;20505;-71
2023/02/28 00:44:01;;;;;;;5.00;1.47;;;;;;;-0.37;82.37;102080.97;4986800;28;20030;-71
2023/02/28 00:46:27;;;;;;;3.67;1.43;;;;;;;-0.54;84.94;102079.94;4986234;28;20030;-71
2023/02/28 00:48:52;;;;;;;4.33;1.20;;;;;;;-0.63;85.90;102084.50;4989242;28;20036;-71
2023/02/28 00:51:17;;;;;;;4.87;1.70;;;;;;;-0.64;87.18;102076.66;4984339;28;20034;-71
2023/02/28 00:53:43;;;;;;;5.23;1.60;;;;;;;-0.67;87.41;102070.47;4984615;28;20037;-71
2023/02/28 00:56:08;;;;;;;6.20;1.83;;;;;;;-0.69;87.37;102074.66;5001602;28;20041;-71
2023/02/28 00:58:33;;;;;;;4.50;1.70;;;;;;;-0.74;86.99;102077.75;4989215;28;20033;-71
2023/02/28 01:00:59;;;;;;;4.93;1.53;;;;;;;-0.75;87.45;102073.38;4993043;28;20129;-71
2023/02/28 01:03:24;;;;;;;4.23;1.87;;;;;;;-0.87;88.32;102081.25;5003906;28;20026;-71
2023/02/28 01:05:50;;;;;;;6.23;1.40;;;;;;;-0.95;89.11;102072.06;5001075;28;20042;-71
2023/02/28 01:08:16;;;;;;;3.53;1.30;;;;;;;-1.00;90.10;102076.97;4993504;28;20042;-71
2023/02/28 01:10:42;;;;;;;3.17;1.27;;;;;;;-1.04;89.64;102074.09;5001019;28;20050;-71
2023/02/28 01:13:07;;;;;;;6.80;1.93;;;;;;;-1.09;89.90;102084.16;4985098;28;20497;-71
2023/02/28 01:15:36;;;;;;;4.37;1.30;;;;;;;-1.17;90.69;102082.75;4999851;28;20038;-71
2023/02/28 01:18:01;;;;;;;4.57;1.13;;;;;;;-1.25;90.45;102083.94;5005217;28;20451;-71
2023/02/28 01:20:27;;;;;;;4.37;1.57;;;;;;;-1.34;90.76;102074.75;5000099;28;20042;-71
2023/02/28 01:22:52;;;;;;;4.80;1.50;;;;;;;-1.39;91.03;102076.16;5002340;28;20030;-70
2023/02/28 01:25:18;;;;;;;5.60;1.77;;;;;;;-1.45;92.04;102075.72;4985619;28;20382;-71
2023/02/28 01:27:43;;;;;;;6.67;1.57;;;;;;;-1.52;92.69;102072.59;4999601;28;20684;-71
2023/02/28 01:30:09;;;;;;;5.33;1.87;;;;;;;-1.61;93.36;102078.97;5003343;28;20034;-71
2023/02/28 01:32:35;;;;;;;3.77;1.40;;;;;;;-1.70;92.94;102069.66;4999825;28;20121;-71
2023/02/28 01:35:00;;;;;;;6.17;1.70;;;;;;;-1.80;93.03;102076.81;5003598;28;20069;-71
2023/02/28 01:37:26;;;;;;;4.17;1.60;;;;;;;-1.86;93.00;102071.25;4985178;28;20103;-71
2023/02/28 01:39:52;;;;;;;4.60;2.17;;;;;;;-1.95;93.27;102070.59;4983570;28;20412;-71
2023/02/28 01:42:19;;;;;;;3.97;1.50;;;;;;;-1.96;94.17;102070.50;5002727;28;20037;-72
2023/02/28 01:45:18;;;;;;;4.50;1.53;;;;;;;-1.89;95.55;102070.13;4982956;28;20042;-71
2023/02/28 01:47:44;;;;;;;3.43;1.10;;;;;;;-1.86;96.54;102073.81;4983422;28;20034;-71
2023/02/28 01:50:15;;;;;;;3.60;1.07;;;;;;;-1.75;96.58;102076.25;5001541;28;20560;-71
2023/02/28 01:52:42;;;;;;;5.20;1.70;;;;;;;-1.69;97.02;102074.06;4981381;28;20035;-71
2023/02/28 01:55:10;;;;;;;6.23;1.97;;;;;;;-1.63;96.23;102069.31;5004487;28;20445;-71
2023/02/28 01:57:45;;;;;;;4.80;1.67;;;;;;;-1.58;96.91;102068.81;5001134;28;20041;-71
2023/02/28 02:00:15;;;;;;;4.27;1.27;;;;;;;-1.51;97.08;102069.25;5000110;28;20190;-72
2023/02/28 02:02:48;;;;;;;4.37;1.07;;;;;;;-1.40;97.05;102069.16;4985314;28;20496;-71
2023/02/28 02:05:20;;;;;;;3.83;1.10;;;;;;;-1.29;96.14;102066.38;5011127;28;20046;-71
2023/02/28 02:07:49;;;;;;;5.93;1.30;;;;;;;-1.19;96.67;102056.72;5006560;28;20041;-70
2023/02/28 02:10:39;;;;;;;5.83;1.57;;;;;;;-1.07;96.39;102058.31;5003625;28;20132;-71
2023/02/28 02:13:38;;;;;;;6.37;1.90;;;;;;;-0.99;95.58;102051.97;4989105;28;20485;-71
2023/02/28 02:16:34;;;;;;;3.97;1.57;;;;;;;-0.99;93.81;102052.84;4991128;28;20121;-71
2023/02/28 02:19:32;;;;;;;4.73;1.40;;;;;;;-1.02;93.77;102055.25;5003648;28;20042;-71
2023/02/28 02:22:16;;;;;;;5.57;1.20;;;;;;;-1.13;93.95;102051.03;4966584;28;20046;-71
2023/02/28 02:25:03;;;;;;;3.60;1.27;;;;;;;-1.18;95.30;102048.19;4985536;28;20503;-71
2023/02/28 02:27:54;;;;;;;4.93;1.63;;;;;;;-1.24;95.99;102041.69;5004775;28;20099;-71
2023/02/28 02:30:40;;;;;;;5.33;1.50;;;;;;;-1.28;95.64;102047.44;5009053;28;20077;-71
2023/02/28 02:33:37;;;;;;;4.63;1.20;;;;;;;-1.28;96.15;102037.06;5004397;28;20412;-71
2023/02/28 02:36:17;;;;;;;6.87;1.70;;;;;;;-1.25;96.84;102045.09;5004113;28;20109;-71
2023/02/28 02:38:51;;;;;;;4.40;1.47;;;;;;;-1.26;97.09;102040.69;5006479;28;20078;-71
2023/02/28 02:41:27;;;;;;;5.20;1.50;;;;;;;-1.26;97.23;102036.38;4991744;28;20033;-71
2023/02/28 02:44:01;;;;;;;7.03;1.73;;;;;;;-1.30;96.26;102034.41;5003872;28;20042;-71
2023/02/28 02:46:32;;;;;;;5.37;1.50;;;;;;;-1.38;97.93;102035.59;5002530;28;20049;-71
2023/02/28 02:49:03;;;;;;;3.70;1.20;;;;;;;-1.37;97.71;102040.88;5003473;28;20034;-71
2023/02/28 02:51:32;;;;;;;3.27;1.17;;;;;;;-1.35;97.50;102041.88;5001274;28;20045;-71
2023/02/28 02:54:03;;;;;;;4.33;1.70;;;;;;;-1.32;97.15;102042.06;4987230;28;20046;-71
2023/02/28 02:56:33;;;;;;;3.50;1.17;;;;;;;-1.25;96.63;102042.50;4984974;28;20124;-71
2023/02/28 02:59:07;;;;;;;4.10;1.73;;;;;;;-1.26;95.18;102036.38;4988546;28;20493;-71
2023/02/28 03:01:34;;;;;;;5.43;1.67;;;;;;;-1.28;95.70;102037.06;4985858;28;20034;-71
2023/02/28 03:04:04;;;;;;;5.10;1.90;;;;;;;-1.33;95.58;102044.56;4988446;28;20043;-71
2023/02/28 03:06:29;;;;;;;7.03;2.00;;;;;;;-1.39;94.48;102045.06;5005612;28;20060;-71
2023/02/28 03:08:54;;;;;;;4.60;1.73;;;;;;;-1.45;94.62;102042.06;5003982;28;20038;-71
2023/02/28 03:11:21;;;;;;;4.13;1.83;;;;;;;-1.53;93.29;102043.25;4986800;28;20069;-71
2023/02/28 03:14:09;;;;;;;4.13;1.60;;;;;;;-1.58;93.63;102044.63;5002685;28;20088;-71
2023/02/28 03:16:54;;;;;;;5.90;1.70;;;;;;;-1.69;94.98;102049.06;4991972;28;20030;-71
2023/02/28 03:19:47;;;;;;;4.00;1.73;;;;;;;-1.79;94.69;102047.53;5001131;28;20477;-71
2023/02/28 03:22:12;;;;;;;5.18;1.60;;;;;;;-1.86;95.16;102045.38;4993601;28;20073;-71
2023/02/28 03:25:09;;;;;;;4.87;1.73;;;;;;;-1.83;95.52;102055.03;5001127;28;20038;-71
2023/02/28 03:28:17;;;;;;;5.67;2.00;;;;;;;-1.87;96.15;102061.66;5001999;28;20037;-71
2023/02/28 03:30:58;;;;;;;4.17;1.63;;;;;;;-1.89;96.67;102058.06;4925940;29;20194;-71
2023/02/28 03:33:30;;;;;;;6.17;1.93;;;;;;;-1.93;97.33;102058.66;4999529;28;20882;-71
2023/02/28 03:36:10;;;;;;;7.25;1.40;;;;;;;-2.02;96.06;102069.28;5003221;28;20397;-71
2023/02/28 03:38:39;;;;;;;5.90;2.50;;;;;;;-2.08;95.72;102067.94;5005480;28;20034;-71
2023/02/28 03:41:13;;;;;;;4.97;1.43;;;;;;;-2.10;96.77;102067.84;5002198;28;20386;-71
2023/02/28 03:43:43;;;;;;;8.47;2.00;;;;;;;-2.13;97.73;102069.31;5003510;28;20120;-71
2023/02/28 03:46:12;;;;;;;5.47;1.87;;;;;;;-2.17;97.93;102059.53;5003433;28;20099;-71
2023/02/28 03:48:45;;;;;;;7.17;2.37;;;;;;;-2.13;98.78;102062.44;5002097;28;20042;-71
2023/02/28 03:51:17;;;;;;;6.97;1.70;;;;;;;-2.05;98.75;102065.56;5001040;28;20592;-71
2023/02/28 03:53:47;;;;;;;5.85;1.48;;;;;;;-1.95;99.27;102068.00;5004095;28;20492;-71
2023/02/28 03:56:37;;;;;;;4.93;1.73;;;;;;;-1.86;99.17;102070.31;4986727;28;20562;-71
2023/02/28 03:59:12;;;;;;;4.23;1.70;;;;;;;-1.83;98.42;102070.56;5008501;28;20064;-71
2023/02/28 04:01:41;;;;;;;4.37;1.73;;;;;;;-1.81;98.74;102069.88;5004033;28;20041;-71
2023/02/28 04:04:08;;;;;;;5.17;2.03;;;;;;;-1.76;98.95;102072.75;5001541;28;20038;-71
2023/02/28 04:06:34;;;;;;;6.53;2.43;;;;;;;-1.79;98.34;102065.66;5006800;28;20160;-71
2023/02/28 04:09:00;;;;;;;5.10;1.93;;;;;;;-1.75;98.53;102068.50;5005003;28;20117;-71
2023/02/28 04:11:41;;;;;;;4.90;1.87;;;;;;;-1.70;98.02;102072.25;5000812;28;20125;-71
2023/02/28 04:14:08;;;;;;;5.97;1.93;;;;;;;-1.73;98.32;102072.06;5004105;28;20501;-71
2023/02/28 04:16:36;;;;;;;6.07;2.33;;;;;;;-1.83;96.69;102071.44;5008746;28;20097;-72
2023/02/28 04:19:06;;;;;;;6.57;2.67;;;;;;;-1.89;96.81;102065.81;5001567;28;20042;-71
2023/02/28 04:21:32;;;;;;;5.33;1.90;;;;;;;-1.95;97.17;102070.59;5007209;28;20038;-71
2023/02/28 04:24:00;;;;;;;6.27;1.80;;;;;;;-2.03;97.69;102071.75;5000836;28;20042;-71
2023/02/28 04:26:28;;;;;;;5.03;1.83;;;;;;;-2.13;97.27;102077.06;5000225;28;20034;-71
2023/02/28 04:28:53;;;;;;;4.57;1.70;;;;;;;-2.26;98.37;102068.44;5003775;28;20114;-71
2023/02/28 04:31:19;;;;;;;7.37;2.50;;;;;;;-2.32;98.94;102083.56;5002265;28;20073;-71
2023/02/28 04:33:44;;;;;;;7.03;2.80;;;;;;;-2.44;98.13;102081.00;5004321;28;20145;-71
2023/02/28 04:36:09;;;;;;;5.20;1.87;;;;;;;-2.50;99.63;102092.59;5002772;28;20053;-71
2023/02/28 04:38:37;;;;;;;5.63;1.70;;;;;;;-2.56;100.00;102087.00;5001651;28;20046;-71
2023/02/28 04:41:03;;;;;;;5.90;1.93;;;;;;;-2.63;100.00;102089.91;5002655;28;20041;-71
2023/02/28 04:43:29;;;;;;;6.03;1.90;;;;;;;-2.69;100.00;102090.38;5001719;28;20029;-71
2023/02/28 04:45:57;;;;;;;6.27;1.80;;;;;;;-2.74;100.00;102092.63;5007322;28;20068;-70
2023/02/28 04:48:24;;;;;;;5.27;1.90;;;;;;;-2.76;100.00;102091.59;5005665;28;20034;-71
2023/02/28 04:50:50;;;;;;;6.43;2.40;;;;;;;-2.79;100.00;102093.97;5003933;28;20049;-71
2023/02/28 04:53:15;;;;;;;7.57;2.10;;;;;;;-2.80;100.00;102087.03;5002963;28;20042;-71
2023/02/28 04:55:41;;;;;;;7.33;2.50;;;;;;;-2.78;100.00;102085.41;5000756;28;20096;-71
2023/02/28 04:58:06;;;;;;;9.90;2.53;;;;;;;-2.74;100.00;102090.03;5006613;28;20489;-71
2023/02/28 05:00:31;;;;;;;7.00;2.20;;;;;;;-2.69;100.00;102091.25;5000819;28;20665;-71
2023/02/28 05:02:57;;;;;;;5.83;2.23;;;;;;;-2.67;100.00;102093.97;5003260;28;20038;-71
2023/02/28 05:05:22;;;;;;;7.10;2.43;;;;;;;-2.62;100.00;102089.13;5000679;28;20061;-71
2023/02/28 05:07:47;;;;;;;5.23;2.07;;;;;;;-2.61;100.00;102093.50;5003377;28;20420;-71
2023/02/28 05:10:13;;;;;;;5.83;2.40;;;;;;;-2.55;100.00;102093.94;5008114;28;20393;-71
2023/02/28 05:12:38;;;;;;;7.20;2.30;;;;;;;-2.51;100.00;102090.81;5003928;28;20468;-71
2023/02/28 05:15:04;;;;;;;6.33;2.73;;;;;;;-2.46;100.00;102090.34;5007512;28;20030;-72
2023/02/28 05:17:30;;;;;;;6.17;2.20;;;;;;;-2.43;100.00;102095.72;5010037;28;20086;-71
2023/02/28 05:19:55;;;;;;;6.07;2.20;;;;;;;-2.46;100.00;102092.03;5000252;28;20062;-71
2023/02/28 05:22:21;;;;;;;8.03;2.10;;;;;;;-2.50;100.00;102093.47;5000935;28;20751;-71
2023/02/28 05:24:47;;;;;;;6.27;1.87;;;;;;;-2.52;100.00;102091.56;5009071;28;20539;-71
2023/02/28 05:27:12;;;;;;;9.53;2.80;;;;;;;-2.56;100.00;102095.63;5006994;28;20026;-71
2023/02/28 05:29:41;;;;;;;8.83;3.63;;;;;;;-2.61;100.00;102093.50;5001067;28;20561;-72
2023/02/28 05:32:11;;;;;;;7.63;2.83;;;;;;;-2.69;100.00;102099.03;4994918;28;20049;-71
2023/02/28 05:34:40;;;;;;;10.10;4.20;;;;;;;-2.77;100.00;102097.56;4997258;28;20057;-71
2023/02/28 05:37:10;;;;;;;7.10;2.67;;;;;;;-2.87;100.00;102103.75;5004756;28;20038;-71
2023/02/28 05:39:36;;;;;;;11.60;3.33;;;;;;;-2.94;100.00;102103.19;5008066;28;20037;-71
2023/02/28 05:42:01;;;;;;;9.70;3.57;;;;;;;-2.97;100.00;102100.38;5000535;28;20401;-70
2023/02/28 05:44:27;;;;;;;11.77;3.23;;;;;;;-3.03;100.00;102108.59;5002375;28;20099;-71
2023/02/28 05:46:52;;;;;;;8.50;3.00;;;;;;;-3.07;100.00;102101.38;5004645;28;20504;-71
2023/02/28 05:49:17;;;;;;;7.30;3.53;;;;;;;-3.13;100.00;102112.16;5006106;28;20038;-71
2023/02/28 05:51:43;;;;;;;9.03;2.73;;;;;;;-3.19;100.00;102111.72;5008223;28;20035;-71
2023/02/28 05:54:08;;;;;;;11.23;3.60;;;;;;;-3.21;100.00;102118.44;5008487;28;20096;-71
2023/02/28 05:56:38;;;;;;;14.50;6.00;;;;;;;-3.26;100.00;102124.06;5008994;28;20037;-71
2023/02/28 05:59:04;;;;;;;10.93;4.43;;;;;;;-3.30;100.00;102122.94;5003306;28;20038;-71
2023/02/28 06:01:47;;;;;;;23.60;10.30;;;;;;;-3.31;100.00;102124.59;5003232;28;20123;-71
2023/02/28 06:04:17;;;;;;;12.53;5.20;;;;;;;-3.37;100.00;102129.31;5008194;28;20112;-71
2023/02/28 06:06:44;;;;;;;10.00;4.07;;;;;;;-3.39;100.00;102132.56;5006669;28;20485;-71
2023/02/28 06:09:10;;;;;;;9.77;4.13;;;;;;;-3.42;100.00;102137.50;5003152;28;20034;-71
2023/02/28 06:11:35;;;;;;;7.47;2.70;;;;;;;-3.43;100.00;102139.19;5001473;28;20068;-71
2023/02/28 06:14:01;;;;;;;7.60;2.90;;;;;;;-3.40;100.00;102143.69;5004069;28;20408;-71
2023/02/28 06:16:28;;;;;;;9.90;3.63;;;;;;;-3.41;100.00;102149.59;5002552;28;20044;-71
2023/02/28 06:18:55;;;;;;;13.97;3.43;;;;;;;-3.44;100.00;102150.25;5004824;28;20041;-71
2023/02/28 06:21:21;;;;;;;10.00;3.63;;;;;;;-3.47;100.00;102146.56;5003919;28;20044;-71
2023/02/28 06:23:47;;;;;;;12.57;4.03;;;;;;;-3.45;100.00;102152.75;5000024;28;20409;-71
2023/02/28 06:26:12;;;;;;;7.80;3.03;;;;;;;-3.45;100.00;102153.63;5001782;28;20120;-71
2023/02/28 06:28:38;;;;;;;8.97;3.43;;;;;;;-3.42;100.00;102151.28;5000033;28;20057;-71
2023/02/28 06:31:12;;;;;;;9.53;4.17;;;;;;;-3.39;100.00;102150.63;5004963;28;20117;-71
2023/02/28 06:33:39;;;;;;;8.60;3.00;;;;;;;-3.39;100.00;102150.63;5001005;28;20076;-71
2023/02/28 06:36:05;;;;;;;10.67;4.07;;;;;;;-3.35;100.00;102150.97;5003822;28;20048;-71
2023/02/28 06:38:31;;;;;;;8.20;2.70;;;;;;;-3.31;100.00;102157.25;5005056;28;20524;-71
2023/02/28 06:40:58;;;;;;;7.87;2.83;;;;;;;-3.25;100.00;102160.28;5001263;28;20038;-71
2023/02/28 06:43:24;;;;;;;8.63;3.80;;;;;;;-3.19;100.00;102165.94;5004004;28;20026;-71
2023/02/28 06:45:50;;;;;;;8.93;4.30;;;;;;;-3.16;100.00;102165.28;5005563;28;20037;-71
2023/02/28 06:48:16;;;;;;;7.90;3.50;;;;;;;-3.15;100.00;102164.47;5006867;28;20035;-71
2023/02/28 06:50:41;;;;;;;8.03;3.10;;;;;;;-3.14;100.00;102171.47;5009502;28;20037;-71
2023/02/28 06:53:07;;;;;;;8.17;2.70;;;;;;;-3.10;100.00;102168.31;5005797;28;20124;-71
2023/02/28 06:55:32;;;;;;;11.40;3.90;;;;;;;-3.02;100.00;102166.31;5007231;28;20113;-71
2023/02/28 06:57:58;;;;;;;9.13;3.23;;;;;;;-2.94;100.00;102172.94;5002801;28;20061;-71
2023/02/28 07:00:24;;;;;;;5.77;2.50;;;;;;;-2.86;100.00;102169.22;5015728;28;20037;-71
2023/02/28 07:02:50;;;;;;;16.37;3.60;;;;;;;-2.80;100.00;102185.22;5007774;28;20022;-71
2023/02/28 07:05:15;;;;;;;12.03;3.87;;;;;;;-2.72;100.00;102172.84;5002419;28;20057;-71
2023/02/28 07:07:43;;;;;;;10.00;3.43;;;;;;;-2.69;100.00;102170.50;5005194;28;20068;-71
2023/02/28 07:10:14;;;;;;;10.83;4.23;;;;;;;-2.60;100.00;102178.91;5002861;28;20050;-71
2023/02/28 07:12:39;;;;;;;11.07;3.73;;;;;;;-2.51;100.00;102183.88;5004143;28;20037;-71
2023/02/28 07:15:05;;;;;;;10.70;4.57;;;;;;;-2.41;100.00;102186.34;5006972;28;20038;-71
2023/02/28 07:17:31;;;;;;;11.13;4.57;;;;;;;-2.30;100.00;102193.19;5003206;28;20133;-71
2023/02/28 07:19:56;;;;;;;8.43;3.67;;;;;;;-2.16;100.00;102190.69;5006943;28;20064;-71
2023/02/28 07:22:22;;;;;;;6.07;2.93;;;;;;;-2.06;100.00;102191.44;5007062;28;20038;-71
2023/02/28 07:24:47;;;;;;;8.23;2.83;;;;;;;-1.98;100.00;102186.81;5005761;28;20030;-71
2023/02/28 07:27:12;;;;;;;7.97;3.53;;;;;;;-1.91;100.00;102191.66;5002769;28;20100;-71
2023/02/28 07:29:38;;;;;;;6.40;3.27;;;;;;;-1.86;100.00;102182.53;5003528;28;20034;-71
2023/02/28 07:32:03;;;;;;;6.83;3.27;;;;;;;-1.77;100.00;102185.75;5006755;28;20142;-71
2023/02/28 07:34:29;;;;;;;6.97;3.27;;;;;;;-1.68;99.71;102189.75;5009407;28;20034;-71
2023/02/28 07:36:54;;;;;;;8.63;2.97;;;;;;;-1.59;99.47;102183.53;5004654;28;20061;-71
2023/02/28 07:39:21;;;;;;;12.13;4.00;;;;;;;-1.51;98.91;102184.06;5004719;28;20030;-71
2023/02/28 07:41:47;;;;;;;7.70;3.53;;;;;;;-1.43;99.91;102189.78;5002368;28;20458;-71
2023/02/28 07:44:12;;;;;;;8.90;3.17;;;;;;;-1.36;100.00;102200.66;5004091;28;20119;-71
2023/02/28 07:46:37;;;;;;;8.20;3.63;;;;;;;-1.30;99.63;102194.13;5004666;28;20037;-71
2023/02/28 07:49:03;;;;;;;8.67;4.17;;;;;;;-1.26;99.77;102198.69;5005139;28;20126;-71
2023/02/28 07:51:30;;;;;;;6.43;2.90;;;;;;;-1.16;99.68;102201.13;5007402;28;20124;-71
2023/02/28 07:53:55;;;;;;;7.93;3.13;;;;;;;-1.07;99.23;102193.97;5001021;28;20045;-71
2023/02/28 07:56:21;;;;;;;18.23;7.70;;;;;;;-0.99;99.03;102198.00;5011409;28;20033;-71
2023/02/28 07:58:46;;;;;;;13.93;5.33;;;;;;;-0.92;98.39;102194.09;5004825;28;20038;-71
2023/02/28 08:01:12;;;;;;;11.53;4.17;;;;;;;-0.83;98.17;102196.41;4983787;28;20642;-71
2023/02/28 08:03:39;;;;;;;9.03;3.90;;;;;;;-0.70;97.76;102188.66;5004785;28;20030;-71
2023/02/28 08:06:06;;;;;;;9.77;3.20;;;;;;;-0.58;97.33;102189.44;5000428;28;20037;-71
2023/02/28 08:08:31;;;;;;;9.87;3.77;;;;;;;-0.50;96.57;102185.69;5007605;28;20117;-70
2023/02/28 08:11:01;;;;;;;12.60;4.73;;;;;;;-0.38;96.58;102189.84;5007246;28;20459;-70
2023/02/28 08:13:28;;;;;;;15.07;5.03;;;;;;;-0.30;95.39;102183.47;5004399;28;20038;-71
2023/02/28 08:15:54;;;;;;;12.13;5.17;;;;;;;-0.21;95.53;102178.84;5003924;28;20125;-71
2023/02/28 08:18:20;;;;;;;13.73;6.00;;;;;;;-0.12;94.41;102188.94;5004587;28;20030;-71
2023/02/28 08:20:45;;;;;;;14.17;5.40;;;;;;;-0.06;94.13;102185.00;5005116;28;20088;-71
2023/02/28 08:23:10;;;;;;;10.73;5.20;;;;;;;0.06;93.80;102182.31;5002625;28;20035;-71
2023/02/28 08:25:36;;;;;;;9.13;3.63;;;;;;;0.15;94.03;102176.78;5002068;28;20041;-71
2023/02/28 08:28:01;;;;;;;8.40;3.50;;;;;;;0.25;93.05;102179.16;5007197;28;20034;-71
2023/02/28 08:30:26;;;;;;;8.47;3.50;;;;;;;0.33;92.21;102183.13;5008003;28;20062;-71
2023/02/28 08:32:52;;;;;;;9.73;4.53;;;;;;;0.41;93.38;102184.47;5006008;28;20044;-71
2023/02/28 08:35:17;;;;;;;15.67;5.47;;;;;;;0.53;93.39;102192.16;5004895;28;20044;-71
2023/02/28 08:37:43;;;;;;;10.13;5.00;;;;;;;0.62;92.37;102184.00;5007235;28;20112;-71
2023/02/28 08:40:08;;;;;;;14.97;6.03;;;;;;;0.70;91.78;102190.56;5006620;28;20092;-71
2023/02/28 08:42:34;;;;;;;11.57;5.80;;;;;;;0.76;91.56;102183.16;5007887;28;20057;-71
2023/02/28 08:45:00;;;;;;;10.83;4.40;;;;;;;0.77;90.13;102192.72;5001663;28;20038;-71
2023/02/28 08:47:25;;;;;;;10.83;4.53;;;;;;;0.83;90.72;102193.09;5002420;28;20037;-71
2023/02/28 08:49:51;;;;;;;9.23;4.00;;;;;;;0.94;89.86;102192.81;5003875;28;20052;-71
2023/02/28 08:52:16;;;;;;;12.33;4.27;;;;;;;1.02;88.64;102191.56;5004022;28;20099;-71
2023/02/28 08:54:41;;;;;;;10.38;5.35;;;;;;;1.11;88.30;102193.84;5008700;28;20444;-71
2023/02/28 08:57:07;;;;;;;13.13;5.43;;;;;;;1.22;87.61;102192.75;5003985;28;20058;-71
2023/02/28 08:59:32;;;;;;;11.18;4.43;;;;;;;1.30;87.03;102202.78;5006455;28;20065;-71
2023/02/28 09:01:58;;;;;;;7.50;3.30;;;;;;;1.40;86.65;102193.81;5000748;28;20038;-71
2023/02/28 09:04:23;;;;;;;6.82;3.35;;;;;;;1.51;85.44;102187.50;5003312;28;20065;-72
2023/02/28 09:06:48;;;;;;;6.95;2.45;;;;;;;1.60;82.99;102184.56;4999972;28;20046;-71
2023/02/28 09:09:15;;;;;;;8.82;3.30;;;;;;;1.84;82.32;102189.34;5002877;28;20042;-71
2023/02/28 09:11:41;;;;;;;10.57;3.83;;;;;;;2.12;80.11;102182.25;5007525;28;20069;-71
2023/02/28 09:14:06;;;;;;;8.75;3.03;;;;;;;2.37;75.70;102181.84;5001113;28;20053;-71
2023/02/28 09:16:34;;;;;;;8.27;3.45;;;;;;;2.59;74.97;102178.69;5001585;28;20488;-71
2023/02/28 09:19:00;;;;;;;8.52;3.92;;;;;;;2.79;73.50;102174.50;4999527;28;20073;-72
2023/02/28 09:21:26;;;;;;;10.75;3.90;;;;;;;3.00;73.02;102173.81;5009025;28;20065;-71
2023/02/28 09:23:52;;;;;;;9.00;3.90;;;;;;;3.19;71.37;102171.31;5005110;28;20042;-71
2023/02/28 09:26:20;;;;;;;7.63;3.53;;;;;;;3.42;68.58;102171.56;5002204;28;20096;-71
2023/02/28 09:28:46;;;;;;;6.75;3.13;;;;;;;3.47;64.10;102170.97;5001790;28;20033;-71
2023/02/28 09:31:22;;;;;;;11.38;4.80;;;;;;;3.68;65.16;102162.38;5000854;28;20049;-71
2023/02/28 09:33:53;;;;;;;9.88;4.93;;;;;;;3.74;65.48;102167.88;5003163;28;20042;-71
2023/02/28 09:36:19;;;;;;;11.93;6.00;;;;;;;3.77;64.17;102164.53;5002744;28;20034;-71
2023/02/28 09:38:46;;;;;;;7.93;3.28;;;;;;;3.72;64.47;102174.75;4999538;28;20100;-72
2023/02/28 09:41:18;;;;;;;10.13;5.50;;;;;;;3.70;63.64;102176.41;4999525;28;20046;-71
2023/02/28 09:43:49;;;;;;;14.07;6.80;;;;;;;3.70;62.08;102176.41;5003278;28;20034;-71
2023/02/28 09:46:20;;;;;;;17.65;9.07;;;;;;;3.66;64.14;102171.84;4983403;28;20030;-71
2023/02/28 09:48:48;;;;;;;17.00;7.88;;;;;;;3.59;63.63;102168.06;4998236;28;20044;-72
2023/02/28 09:51:48;;;;;;;11.85;6.85;;;;;;;3.54;62.50;102171.25;5008618;28;20042;-71
2023/02/28 09:54:23;;;;;;;9.43;4.65;;;;;;;3.60;64.65;102163.72;5008452;28;20053;-72
2023/02/28 09:57:04;;;;;;;9.15;3.00;;;;;;;3.63;61.69;102164.75;5002362;28;20032;-71
2023/02/28 09:59:48;;;;;;;7.22;3.45;;;;;;;3.60;60.36;102164.63;5002883;28;20045;-71
2023/02/28 10:02:26;;;;;;;8.30;4.00;;;;;;;3.62;61.48;102177.75;5001924;28;20037;-71
2023/02/28 10:04:57;;;;;;;8.20;3.53;;;;;;;3.62;61.25;102172.53;5003591;28;20046;-71
2023/02/28 10:07:49;;;;;;;12.85;3.40;;;;;;;3.57;61.23;102176.66;5004582;28;20113;-71
2023/02/28 10:10:21;;;;;;;8.27;3.85;;;;;;;3.50;61.15;102173.72;5000014;28;20081;-71
2023/02/28 10:12:48;;;;;;;8.07;3.60;;;;;;;3.45;62.21;102169.09;5000502;28;20053;-71
2023/02/28 10:15:16;;;;;;;7.00;3.10;;;;;;;3.45;62.28;102169.97;5003251;28;20049;-71
2023/02/28 10:17:47;;;;;;;7.53;4.25;;;;;;;3.48;62.28;102169.25;4999630;28;20037;-71
2023/02/28 10:20:19;;;;;;;9.32;3.75;;;;;;;3.63;63.61;102166.50;5007790;28;20084;-71
2023/02/28 10:22:58;;;;;;;19.27;6.00;;;;;;;3.79;61.46;102165.50;5005662;28;20033;-72
2023/02/28 10:25:27;;;;;;;8.35;4.03;;;;;;;3.93;61.70;102157.50;5006331;28;20078;-71
2023/02/28 10:27:58;;;;;;;9.40;4.28;;;;;;;4.14;62.04;102159.34;5005208;28;20034;-71
2023/02/28 10:30:24;;;;;;;7.78;3.58;;;;;;;4.22;59.66;102160.56;5010000;28;20404;-72
2023/02/28 10:32:53;;;;;;;9.13;4.43;;;;;;;4.34;61.25;102166.34;5007494;28;20026;-71
2023/02/28 10:35:24;;;;;;;9.82;4.15;;;;;;;4.42;61.35;102165.81;5009034;28;20092;-72
2023/02/28 10:37:54;;;;;;;7.13;3.33;;;;;;;4.44;60.75;102156.31;5008178;28;20038;-72
2023/02/28 10:40:20;;;;;;;8.70;4.72;;;;;;;4.33;58.93;102156.72;5004241;28;20045;-72
2023/02/28 10:43:05;;;;;;;8.65;3.47;;;;;;;4.31;59.27;102147.91;5007868;28;20034;-71
2023/02/28 10:45:34;;;;;;;8.80;4.72;;;;;;;4.34;60.63;102145.44;5002860;28;20428;-71
2023/02/28 10:48:10;;;;;;;8.20;3.40;;;;;;;4.36;57.65;102146.41;5007044;28;20068;-71
2023/02/28 10:50:42;;;;;;;9.43;3.40;;;;;;;4.35;57.05;102138.50;4991620;28;20042;-71
2023/02/28 10:53:24;;;;;;;7.05;3.47;;;;;;;4.39;57.50;102140.41;5002466;28;20064;-71
2023/02/28 10:56:07;;;;;;;7.38;3.00;;;;;;;4.33;57.64;102145.38;5003023;28;20065;-71
2023/02/28 10:59:14;;;;;;;7.63;3.13;;;;;;;4.37;57.01;102137.72;5003093;28;20030;-71
2023/02/28 11:01:45;;;;;;;10.88;4.60;;;;;;;4.45;59.22;102139.78;4926215;29;20122;-71
2023/02/28 11:04:21;;;;;;;14.02;6.90;;;;;;;4.59;58.53;102139.59;4922450;29;20050;-71
2023/02/28 11:06:48;;;;;;;12.77;5.68;;;;;;;4.67;58.41;102139.03;4975974;28;20111;-71
2023/02/28 11:09:31;;;;;;;8.57;3.65;;;;;;;4.69;57.21;102133.03;5006044;28;20042;-71
2023/02/28 11:11:57;;;;;;;7.45;3.65;;;;;;;4.74;59.14;102135.84;5002077;28;20405;-71
2023/02/28 11:14:28;;;;;;;6.57;3.30;;;;;;;4.69;57.37;102132.13;5005543;28;20037;-71
2023/02/28 11:16:57;;;;;;;8.73;2.92;;;;;;;4.57;56.55;102128.16;5002743;28;20030;-71
2023/02/28 11:19:27;;;;;;;9.82;3.90;;;;;;;4.61;58.26;102129.16;5004104;28;20045;-71
2023/02/28 11:22:00;;;;;;;11.15;5.10;;;;;;;4.71;58.42;102136.59;5005630;28;20049;-71
2023/02/28 11:24:43;;;;;;;13.73;5.95;;;;;;;4.80;58.84;102139.63;5004805;28;20038;-71
2023/02/28 11:27:30;;;;;;;8.93;4.50;;;;;;;4.83;57.29;102138.88;5010964;28;20037;-71
2023/02/28 11:29:57;;;;;;;10.63;4.38;;;;;;;4.90;56.97;102134.75;5008096;28;20034;-72
2023/02/28 11:32:28;;;;;;;14.95;4.30;;;;;;;4.91;57.97;102136.56;5002950;28;20038;-72
2023/02/28 11:35:03;;;;;;;10.27;3.97;;;;;;;5.02;57.48;102136.19;5005608;28;20037;-72